createdAt,value
2018-11-23T00:00:26.962Z,50.57
2018-11-23T00:02:56.619Z,44.47
2018-11-23T00:05:25.308Z,55.23
2018-11-23T00:07:54.641Z,56.43
2018-11-23T00:10:24.582Z,59.63
2018-11-23T00:12:53.546Z,60.27
2018-11-23T00:15:23.279Z,55.70
2018-11-23T00:17:51.881Z,56.23
2018-11-23T00:20:21.890Z,62.47
2018-11-23T00:22:50.513Z,58.70
2018-11-23T00:25:20.395Z,60.17
2018-11-23T00:27:49.282Z,52.83
2018-11-23T00:30:19.926Z,58.93
2018-11-23T00:32:49.048Z,63.43
2018-11-23T00:35:20.354Z,68.90
2018-11-23T00:37:49.575Z,67.30
2018-11-23T00:40:19.939Z,54.33
2018-11-23T00:42:48.815Z,59.23
2018-11-23T00:45:17.475Z,63.97
2018-11-23T00:47:46.877Z,52.77
2018-11-23T00:50:16.875Z,66.03
2018-11-23T00:52:46.415Z,58.97
2018-11-23T00:55:16.323Z,62.87
2018-11-23T00:57:44.924Z,53.83
2018-11-23T01:00:18.435Z,52.97
2018-11-23T01:02:47.173Z,50.50
2018-11-23T01:05:17.129Z,49.23
2018-11-23T01:07:46.246Z,44.60
2018-11-23T01:10:16.305Z,44.80
2018-11-23T01:12:46.061Z,51.63
2018-11-23T01:15:14.881Z,45.63
2018-11-23T01:17:43.631Z,45.17
2018-11-23T01:20:16.623Z,35.70
2018-11-23T01:22:45.567Z,39.93
2018-11-23T01:25:15.503Z,31.67
2018-11-23T01:27:45.122Z,34.20
2018-11-23T01:30:21.081Z,31.70
2018-11-23T01:32:49.783Z,31.73
2018-11-23T01:35:18.435Z,24.83
2018-11-23T01:37:47.060Z,24.80
2018-11-23T01:40:18.180Z,23.43
2018-11-23T01:42:47.251Z,24.00
2018-11-23T01:45:16.190Z,24.73
2018-11-23T01:47:44.833Z,25.10
2018-11-23T01:50:17.635Z,28.00
2018-11-23T01:52:47.347Z,26.83
2018-11-23T01:55:17.132Z,28.63
2018-11-23T01:57:46.262Z,27.10
2018-11-23T02:00:17.101Z,24.73
2018-11-23T02:02:46.359Z,23.30
2018-11-23T02:05:14.957Z,22.63
2018-11-23T02:07:43.609Z,29.20
2018-11-23T02:10:13.598Z,27.67
2018-11-23T02:12:42.288Z,26.00
2018-11-23T02:15:16.628Z,24.40
2018-11-23T02:17:45.558Z,28.40
2018-11-23T02:20:15.432Z,25.00
2018-11-23T02:22:44.117Z,26.93
2018-11-23T02:25:12.806Z,22.23
2018-11-23T02:27:41.390Z,25.43
2018-11-23T02:30:13.493Z,22.27
2018-11-23T02:32:42.275Z,23.80
2018-11-23T02:35:10.998Z,23.57
2018-11-23T02:37:39.671Z,24.37
2018-11-23T02:40:09.378Z,21.97
2018-11-23T02:42:38.341Z,24.97
2018-11-23T02:45:10.174Z,23.37
2018-11-23T02:47:39.022Z,20.53
2018-11-23T02:50:07.820Z,20.43
2018-11-23T02:52:36.842Z,24.43
2018-11-23T02:55:06.120Z,20.67
2018-11-23T02:57:34.925Z,19.50
2018-11-23T03:00:07.128Z,23.70
2018-11-23T03:02:35.813Z,21.87
2018-11-23T03:05:04.990Z,23.43
2018-11-23T03:07:33.670Z,20.63
2018-11-23T03:10:02.319Z,18.80
2018-11-23T03:12:30.980Z,20.20
2018-11-23T03:14:59.546Z,22.67
2018-11-23T03:17:28.179Z,25.33
2018-11-23T03:19:56.972Z,21.10
2018-11-23T03:22:25.632Z,24.53
2018-11-23T03:24:54.330Z,21.33
2018-11-23T03:27:22.996Z,55.50
2018-11-23T03:29:51.548Z,34.77
2018-11-23T03:32:20.182Z,24.07
2018-11-23T03:34:49.809Z,26.20
2018-11-23T03:37:18.385Z,24.30
2018-11-23T03:39:46.968Z,25.67
2018-11-23T03:42:15.646Z,24.77
2018-11-23T03:44:44.322Z,27.73
2018-11-23T03:47:12.947Z,28.77
2018-11-23T03:49:41.521Z,31.27
2018-11-23T03:52:10.268Z,27.87
2018-11-23T03:54:38.890Z,30.37
2018-11-23T03:57:07.564Z,34.27
2018-11-23T03:59:36.151Z,32.47
2018-11-23T04:02:04.894Z,33.53
2018-11-23T04:04:33.543Z,29.00
2018-11-23T04:07:02.162Z,29.53
2018-11-23T04:09:30.785Z,24.93
2018-11-23T04:11:59.493Z,24.67
2018-11-23T04:14:29.248Z,26.73
2018-11-23T04:16:57.886Z,27.50
2018-11-23T04:19:26.748Z,25.90
2018-11-23T04:21:55.403Z,26.13
2018-11-23T04:24:24.063Z,24.33
2018-11-23T04:26:52.699Z,26.07
2018-11-23T04:29:21.422Z,25.77
2018-11-23T04:31:50.479Z,20.80
2018-11-23T04:34:19.137Z,22.30
2018-11-23T04:36:47.755Z,27.83
2018-11-23T04:39:16.425Z,28.83
2018-11-23T04:41:46.440Z,30.70
2018-11-23T04:44:13.868Z,27.40
2018-11-23T04:46:42.582Z,25.97
2018-11-23T04:49:11.229Z,30.70
2018-11-23T04:51:39.869Z,28.20
2018-11-23T04:54:08.621Z,28.43
2018-11-23T04:56:37.282Z,31.37
2018-11-23T04:59:06.567Z,27.60
2018-11-23T05:01:35.513Z,36.30
2018-11-23T05:04:04.309Z,37.90
2018-11-23T05:06:32.927Z,35.27
2018-11-23T05:09:01.734Z,35.37
2018-11-23T05:11:30.532Z,37.30
2018-11-23T05:13:59.270Z,33.03
2018-11-23T05:16:27.913Z,32.90
2018-11-23T05:18:56.544Z,32.23
2018-11-23T05:21:25.209Z,32.60
2018-11-23T05:23:53.861Z,31.63
2018-11-23T05:26:22.510Z,28.53
2018-11-23T05:28:51.258Z,31.87
2018-11-23T05:31:19.887Z,34.93
2018-11-23T05:33:48.608Z,31.87
2018-11-23T05:36:17.260Z,25.37
2018-11-23T05:38:45.948Z,26.30
2018-11-23T05:41:14.637Z,31.43
2018-11-23T05:43:43.361Z,30.37
2018-11-23T05:46:12.093Z,29.10
2018-11-23T05:48:40.796Z,30.47
2018-11-23T05:51:09.498Z,32.47
2018-11-23T05:53:38.177Z,31.00
2018-11-23T05:56:07.118Z,31.27
2018-11-23T05:58:35.819Z,30.73
2018-11-23T06:01:04.498Z,35.87
2018-11-23T06:03:33.182Z,35.80
2018-11-23T06:06:01.844Z,36.63
2018-11-23T06:08:30.471Z,32.47
2018-11-23T06:10:59.112Z,32.40
2018-11-23T06:13:27.803Z,32.50
2018-11-23T06:15:56.449Z,37.23
2018-11-23T06:18:25.091Z,34.67
2018-11-23T06:20:53.685Z,34.13
2018-11-23T06:23:22.389Z,30.90
2018-11-23T06:25:56.693Z,35.50
2018-11-23T06:28:25.324Z,37.07
2018-11-23T06:30:54.010Z,35.30
2018-11-23T06:33:32.524Z,35.67
2018-11-23T06:36:01.143Z,32.70
2018-11-23T06:38:29.898Z,33.63
2018-11-23T06:40:59.408Z,33.53
2018-11-23T06:43:27.669Z,34.17
2018-11-23T06:45:57.028Z,34.43
2018-11-23T06:48:25.664Z,32.73
2018-11-23T06:50:54.673Z,33.60
2018-11-23T06:53:23.435Z,36.70
2018-11-23T06:55:52.217Z,33.93
2018-11-23T06:58:20.929Z,31.93
2018-11-23T07:00:49.604Z,33.97
2018-11-23T07:03:18.284Z,30.80
2018-11-23T07:05:47.066Z,36.07
2018-11-23T07:08:15.708Z,35.60
2018-11-23T07:10:44.311Z,34.90
2018-11-23T07:13:12.985Z,67.67
2018-11-23T07:15:41.696Z,35.73
2018-11-23T07:18:10.396Z,32.83
2018-11-23T07:20:39.065Z,42.73
2018-11-23T07:23:07.896Z,53.77
2018-11-23T07:25:36.663Z,43.47
2018-11-23T07:28:05.529Z,40.23
2018-11-23T07:30:34.147Z,38.13
2018-11-23T07:33:02.764Z,40.03
2018-11-23T07:35:31.444Z,41.33
2018-11-23T07:38:00.984Z,42.03
2018-11-23T07:40:42.478Z,40.97
2018-11-23T07:43:11.367Z,44.97
2018-11-23T07:45:40.368Z,137.20
2018-11-23T07:48:09.352Z,45.30
2018-11-23T07:50:38.267Z,41.83
2018-11-23T07:53:07.282Z,44.87
2018-11-23T07:55:36.014Z,46.03
2018-11-23T07:58:05.174Z,47.77
2018-11-23T08:00:33.928Z,41.40
2018-11-23T08:03:02.591Z,41.57
2018-11-23T08:05:31.325Z,42.20
2018-11-23T08:07:59.952Z,47.33
2018-11-23T08:10:27.725Z,46.10
2018-11-23T08:12:56.370Z,45.70
2018-11-23T08:15:26.344Z,43.57
2018-11-23T08:17:55.020Z,47.93
2018-11-23T08:20:24.661Z,48.20
2018-11-23T08:22:53.336Z,47.73
2018-11-23T08:25:23.065Z,41.73
2018-11-23T08:27:52.865Z,45.27
2018-11-23T08:30:22.935Z,53.60
2018-11-23T08:32:51.719Z,44.27
2018-11-23T08:35:20.423Z,45.93
2018-11-23T08:37:49.121Z,42.87
2018-11-23T08:40:19.971Z,44.87
2018-11-23T08:42:49.324Z,41.80
2018-11-23T08:45:19.650Z,40.00
2018-11-23T08:47:48.257Z,41.23
2018-11-23T08:50:19.582Z,44.00
2018-11-23T08:52:48.200Z,45.63
2018-11-23T08:55:17.849Z,46.77
2018-11-23T08:57:46.489Z,45.57
2018-11-23T09:00:23.163Z,48.13
2018-11-23T09:02:53.103Z,46.23
2018-11-23T09:05:21.909Z,45.27
2018-11-23T09:07:51.798Z,45.33
2018-11-23T09:10:24.306Z,44.53
2018-11-23T09:12:54.768Z,45.80
2018-11-23T09:15:23.436Z,50.50
2018-11-23T09:17:52.144Z,145.33
2018-11-23T09:20:20.926Z,54.03
2018-11-23T09:22:50.089Z,50.60
2018-11-23T09:25:20.745Z,46.80
2018-11-23T09:27:49.475Z,54.03
2018-11-23T09:30:19.986Z,51.10
2018-11-23T09:32:49.450Z,50.83
2018-11-23T09:35:18.168Z,53.83
2018-11-23T09:37:47.316Z,51.80
2018-11-23T09:40:18.267Z,51.03
2018-11-23T09:42:46.907Z,50.20
2018-11-23T09:45:17.601Z,54.00
2018-11-23T09:47:47.035Z,55.77
2018-11-23T09:50:17.305Z,51.87
2018-11-23T09:52:46.957Z,52.63
2018-11-23T09:55:15.672Z,55.80
2018-11-23T09:57:44.341Z,55.03
2018-11-23T10:00:18.995Z,54.13
2018-11-23T10:02:48.525Z,55.93
2018-11-23T10:05:17.885Z,58.77
2018-11-23T10:07:48.010Z,55.13
2018-11-23T10:10:17.493Z,56.17
2018-11-23T10:12:46.203Z,57.17
2018-11-23T10:15:16.970Z,51.93
2018-11-23T10:17:45.731Z,58.83
2018-11-23T10:20:17.618Z,65.90
2018-11-23T10:22:46.495Z,63.27
2018-11-23T10:25:16.971Z,57.20
2018-11-23T10:27:45.995Z,53.83
2018-11-23T10:30:20.922Z,59.13
2018-11-23T10:32:50.736Z,64.93
2018-11-23T10:35:19.445Z,61.27
2018-11-23T10:37:49.468Z,61.07
2018-11-23T10:40:19.650Z,62.37
2018-11-23T10:42:48.356Z,58.60
2018-11-23T10:45:20.027Z,61.93
2018-11-23T10:47:49.472Z,59.47
2018-11-23T10:50:20.608Z,54.60
2018-11-23T10:52:49.485Z,56.53
2018-11-23T10:55:20.018Z,60.17
2018-11-23T10:57:48.741Z,62.30
2018-11-23T11:00:23.346Z,54.17
2018-11-23T11:02:58.464Z,57.57
2018-11-23T11:05:32.297Z,55.70
2018-11-23T11:08:02.448Z,56.17
2018-11-23T11:10:31.128Z,52.03
2018-11-23T11:12:59.840Z,54.77
2018-11-23T11:15:28.497Z,53.60
2018-11-23T11:17:57.147Z,58.97
2018-11-23T11:20:25.776Z,83.70
2018-11-23T11:22:54.429Z,73.60
2018-11-23T11:25:23.181Z,64.80
2018-11-23T11:27:51.918Z,52.77
2018-11-23T11:30:20.976Z,58.20
2018-11-23T11:32:50.140Z,55.33
2018-11-23T11:35:18.790Z,52.37
2018-11-23T11:37:47.484Z,53.87
2018-11-23T11:40:17.682Z,53.23
2018-11-23T11:42:46.458Z,52.07
2018-11-23T11:45:16.485Z,50.40
2018-11-23T11:47:45.664Z,57.10
2018-11-23T11:50:14.729Z,60.90
2018-11-23T11:52:44.804Z,59.70
2018-11-23T11:55:16.046Z,60.23
2018-11-23T11:57:45.325Z,53.03
2018-11-23T12:00:17.871Z,54.73
2018-11-23T12:02:46.838Z,61.80
2018-11-23T12:05:15.496Z,56.87
2018-11-23T12:07:44.104Z,53.00
2018-11-23T12:10:15.564Z,65.33
2018-11-23T12:12:44.197Z,56.33
2018-11-23T12:15:13.633Z,62.03
2018-11-23T12:17:42.545Z,56.70
2018-11-23T12:20:20.070Z,55.47
2018-11-23T12:22:48.773Z,58.53
2018-11-23T12:25:17.742Z,59.10
2018-11-23T12:27:46.342Z,56.90
2018-11-23T12:30:16.759Z,61.37
2018-11-23T12:32:46.334Z,57.33
2018-11-23T12:35:15.916Z,57.60
2018-11-23T12:37:44.575Z,69.27
2018-11-23T12:40:14.636Z,54.40
2018-11-23T12:42:43.912Z,59.10
2018-11-23T12:45:19.738Z,56.53
2018-11-23T12:47:48.405Z,60.13
2018-11-23T12:50:19.090Z,75.43
2018-11-23T12:52:47.795Z,59.43
2018-11-23T12:55:16.904Z,70.83
2018-11-23T12:57:45.531Z,55.70
2018-11-23T13:00:23.405Z,58.77
2018-11-23T13:02:53.679Z,58.63
2018-11-23T13:05:23.326Z,56.33
2018-11-23T13:07:52.749Z,56.90
2018-11-23T13:10:21.926Z,64.47
2018-11-23T13:12:51.089Z,59.53
2018-11-23T13:15:19.300Z,56.87
2018-11-23T13:17:47.983Z,61.97
2018-11-23T13:20:16.960Z,61.73
2018-11-23T13:22:45.715Z,60.27
2018-11-23T13:25:16.569Z,60.43
2018-11-23T13:27:45.266Z,60.03
2018-11-23T13:30:17.481Z,65.30
2018-11-23T13:32:46.206Z,63.13
2018-11-23T13:35:16.142Z,63.67
2018-11-23T13:37:44.775Z,66.47
2018-11-23T13:40:15.438Z,69.07
2018-11-23T13:42:44.402Z,64.20
2018-11-23T13:45:14.302Z,64.70
2018-11-23T13:47:43.071Z,61.90
2018-11-23T13:50:13.659Z,62.27
2018-11-23T13:52:43.573Z,61.43
2018-11-23T13:55:12.226Z,56.33
2018-11-23T13:57:40.863Z,54.20
2018-11-23T14:00:17.527Z,59.53
2018-11-23T14:02:46.703Z,57.07
2018-11-23T14:05:21.366Z,54.93
2018-11-23T14:07:51.326Z,58.67
2018-11-23T14:10:21.394Z,52.33
2018-11-23T14:12:50.159Z,55.50
2018-11-23T14:15:20.316Z,64.37
2018-11-23T14:17:49.810Z,54.10
2018-11-23T14:20:19.229Z,55.30
2018-11-23T14:22:48.007Z,51.70
2018-11-23T14:25:19.066Z,52.30
2018-11-23T14:27:48.176Z,52.73
2018-11-23T14:30:19.442Z,50.10
2018-11-23T14:32:48.282Z,50.93
2018-11-23T14:35:18.425Z,56.77
2018-11-23T14:37:47.824Z,48.43
2018-11-23T14:40:16.536Z,56.73
2018-11-23T14:42:46.139Z,57.90
2018-11-23T14:45:18.013Z,59.70
2018-11-23T14:47:47.200Z,57.13
2018-11-23T14:50:18.189Z,59.53
2018-11-23T14:52:48.194Z,55.63
2018-11-23T14:55:17.186Z,52.43
2018-11-23T14:57:46.439Z,56.80
2018-11-23T15:00:20.921Z,56.60
2018-11-23T15:02:50.840Z,54.07
2018-11-23T15:05:20.123Z,53.03
2018-11-23T15:07:48.953Z,53.53
2018-11-23T15:10:19.089Z,54.93
2018-11-23T15:12:48.988Z,56.57
2018-11-23T15:15:19.153Z,52.03
2018-11-23T15:17:48.789Z,53.20
2018-11-23T15:20:19.471Z,56.67
2018-11-23T15:22:49.754Z,52.23
2018-11-23T15:25:18.481Z,54.40
2018-11-23T15:27:47.363Z,56.70
2018-11-23T15:30:21.725Z,62.67
2018-11-23T15:32:50.369Z,54.73
2018-11-23T15:35:19.096Z,57.87
2018-11-23T15:37:47.723Z,56.40
2018-11-23T15:40:19.124Z,49.80
2018-11-23T15:42:48.830Z,50.10
2018-11-23T15:45:20.878Z,108.20
2018-11-23T15:47:49.514Z,49.93
2018-11-23T15:50:19.670Z,48.93
2018-11-23T15:52:48.579Z,49.33
2018-11-23T15:55:19.974Z,54.93
2018-11-23T15:57:49.441Z,49.27
2018-11-23T16:00:23.561Z,44.27
2018-11-23T16:02:52.354Z,49.27
2018-11-23T16:05:21.159Z,45.30
2018-11-23T16:07:50.156Z,39.70
2018-11-23T16:10:21.117Z,54.00
2018-11-23T16:12:52.240Z,48.40
2018-11-23T16:15:21.551Z,44.87
2018-11-23T16:17:50.878Z,46.37
2018-11-23T16:20:23.339Z,43.17
2018-11-23T16:22:53.399Z,42.53
2018-11-23T16:25:22.178Z,45.37
2018-11-23T16:27:54.211Z,41.60
2018-11-23T16:30:25.337Z,44.53
2018-11-23T16:32:55.224Z,42.67
2018-11-23T16:35:26.412Z,48.40
2018-11-23T16:37:56.039Z,44.40
2018-11-23T16:40:26.794Z,45.27
2018-11-23T16:42:56.536Z,49.60
2018-11-23T16:45:27.020Z,52.37
2018-11-23T16:47:56.916Z,49.17
2018-11-23T16:50:26.384Z,49.27
2018-11-23T16:52:55.658Z,47.07
2018-11-23T16:55:25.066Z,46.57
2018-11-23T16:57:56.737Z,53.47
2018-11-23T17:00:27.213Z,48.47
2018-11-23T17:02:57.375Z,50.90
2018-11-23T17:05:28.226Z,46.80
2018-11-23T17:07:57.147Z,43.07
2018-11-23T17:10:26.181Z,42.83
2018-11-23T17:12:55.064Z,41.37
2018-11-23T17:15:25.537Z,46.03
2018-11-23T17:17:54.457Z,45.87
2018-11-23T17:20:24.653Z,43.87
2018-11-23T17:22:54.797Z,42.10
2018-11-23T17:25:24.980Z,37.97
2018-11-23T17:27:54.648Z,41.17
2018-11-23T17:30:25.803Z,39.13
2018-11-23T17:32:55.088Z,36.53
2018-11-23T17:35:24.495Z,39.17
2018-11-23T17:37:53.518Z,42.43
2018-11-23T17:40:23.849Z,43.53
2018-11-23T17:42:52.982Z,44.23
2018-11-23T17:45:24.531Z,45.53
2018-11-23T17:47:54.155Z,43.00
2018-11-23T17:50:24.281Z,41.13
2018-11-23T17:52:53.406Z,46.77
2018-11-23T17:55:22.225Z,41.57
2018-11-23T17:57:52.129Z,44.23
2018-11-23T18:00:22.435Z,37.43
2018-11-23T18:02:52.346Z,42.23
2018-11-23T18:05:22.155Z,44.57
2018-11-23T18:07:51.514Z,58.47
2018-11-23T18:10:25.588Z,62.83
2018-11-23T18:12:55.821Z,57.73
2018-11-23T18:15:25.965Z,56.03
2018-11-23T18:17:55.993Z,58.47
2018-11-23T18:20:26.159Z,63.17
2018-11-23T18:27:43.107Z,77.00
2018-11-23T18:30:15.380Z,87.00
2018-11-23T18:32:44.387Z,71.77
2018-11-23T18:35:15.020Z,78.47
2018-11-23T18:37:43.986Z,78.57
2018-11-23T18:40:13.820Z,76.83
2018-11-23T18:42:43.178Z,82.70
2018-11-23T18:45:13.696Z,79.60
2018-11-23T18:47:43.613Z,83.47
2018-11-23T18:50:15.563Z,78.27
2018-11-23T18:52:44.884Z,72.17
2018-11-23T18:55:18.341Z,77.10
2018-11-23T18:57:43.852Z,76.30
2018-11-23T19:00:16.736Z,71.93
2018-11-23T19:02:47.823Z,73.50
2018-11-23T19:05:20.812Z,74.50
2018-11-23T19:07:49.823Z,69.83
2018-11-23T19:10:18.927Z,62.80
2018-11-23T19:12:47.991Z,68.00
2018-11-23T19:15:25.296Z,64.20
2018-11-23T19:17:47.625Z,60.43
2018-11-23T19:20:22.715Z,58.37
2018-11-23T19:22:53.902Z,67.83
2018-11-23T19:25:22.858Z,57.67
2018-11-23T19:27:51.933Z,57.53
2018-11-23T19:30:28.059Z,57.47
2018-11-23T19:32:51.307Z,60.57
2018-11-23T19:35:20.504Z,60.63
2018-11-23T19:37:49.609Z,62.07
2018-11-23T19:40:18.659Z,65.10
2018-11-23T19:42:47.834Z,63.30
2018-11-23T19:45:17.680Z,59.43
2018-11-23T19:47:47.340Z,62.77
2018-11-23T19:50:19.059Z,60.13
2018-11-23T19:52:48.466Z,66.80
2018-11-23T19:55:18.293Z,63.23
2018-11-23T19:57:47.546Z,67.40
2018-11-23T20:00:20.324Z,130.20
2018-11-23T20:02:49.507Z,71.37
2018-11-23T20:05:18.453Z,66.30
2018-11-23T20:07:48.897Z,62.67
2018-11-23T20:10:21.842Z,61.33
2018-11-23T20:12:55.365Z,50.50
2018-11-23T20:15:24.546Z,54.07
2018-11-23T20:17:53.729Z,50.23
2018-11-23T20:20:24.319Z,44.23
2018-11-23T20:22:53.451Z,41.63
2018-11-23T20:25:22.612Z,38.97
2018-11-23T20:27:52.632Z,39.07
2018-11-23T20:30:21.968Z,37.80
2018-11-23T20:32:51.566Z,36.97
2018-11-23T20:35:21.519Z,36.50
2018-11-23T20:37:50.555Z,36.63
2018-11-23T20:40:21.342Z,35.87
2018-11-23T20:42:50.383Z,38.63
2018-11-23T20:45:19.690Z,38.70
2018-11-23T20:47:48.448Z,36.27
2018-11-23T20:50:18.086Z,38.63
2018-11-23T20:52:47.166Z,37.00
2018-11-23T20:55:21.066Z,35.57
2018-11-23T20:57:49.877Z,35.63
2018-11-23T21:00:20.832Z,38.07
2018-11-23T21:02:51.525Z,36.33
2018-11-23T21:05:21.114Z,39.53
2018-11-23T21:07:49.791Z,42.30
2018-11-23T21:10:20.897Z,47.73
2018-11-23T21:12:49.806Z,40.90
2018-11-23T21:15:25.704Z,45.47
2018-11-23T21:17:54.378Z,42.10
2018-11-23T21:20:23.108Z,36.03
2018-11-23T21:22:51.799Z,33.10
2018-11-23T21:25:20.450Z,34.03
2018-11-23T21:27:49.471Z,31.83
2018-11-23T21:30:19.775Z,28.87
2018-11-23T21:32:48.996Z,27.17
2018-11-23T21:35:18.078Z,30.07
2018-11-23T21:37:47.719Z,27.70
2018-11-23T21:40:17.639Z,27.63
2018-11-23T21:42:46.680Z,25.40
2018-11-23T21:45:17.488Z,26.17
2018-11-23T21:47:46.601Z,25.97
2018-11-23T21:51:44.910Z,27.70
2018-11-23T21:54:14.126Z,27.13
2018-11-23T21:56:43.457Z,25.93
2018-11-23T21:59:12.758Z,29.77
2018-11-23T22:01:41.939Z,27.23
2018-11-23T22:04:11.389Z,27.97
2018-11-23T22:06:40.737Z,28.20
2018-11-23T22:09:09.822Z,27.97
2018-11-23T22:11:39.790Z,27.00
2018-11-23T22:14:09.029Z,29.73
2018-11-23T22:16:38.121Z,30.30
2018-11-23T22:19:07.279Z,29.47
2018-11-23T22:21:36.799Z,29.77
2018-11-23T22:24:06.248Z,31.83
2018-11-23T22:26:35.318Z,31.03
2018-11-23T22:29:04.540Z,30.20
2018-11-23T22:31:33.521Z,31.13
2018-11-23T22:34:02.533Z,29.00
2018-11-23T22:36:31.544Z,29.33
2018-11-23T22:39:01.040Z,29.03
2018-11-23T22:41:30.551Z,29.57
2018-11-23T22:44:00.428Z,29.47
2018-11-23T22:46:29.968Z,31.87
2018-11-23T22:49:00.095Z,29.37
2018-11-23T22:51:29.095Z,29.23
2018-11-23T22:53:59.083Z,33.90
2018-11-23T22:56:29.141Z,30.63
2018-11-23T22:58:59.252Z,29.77
2018-11-23T23:01:29.456Z,25.73
2018-11-23T23:03:59.393Z,29.40
2018-11-23T23:06:29.095Z,29.33
2018-11-23T23:08:59.208Z,29.17
2018-11-23T23:11:28.915Z,27.90
2018-11-23T23:13:58.836Z,28.27
2018-11-23T23:16:28.394Z,25.83
2018-11-23T23:18:57.445Z,30.90
2018-11-23T23:21:26.520Z,25.10
2018-11-23T23:23:55.837Z,27.87
2018-11-23T23:26:25.283Z,27.03
2018-11-23T23:28:56.643Z,23.03
2018-11-23T23:31:25.737Z,20.80
2018-11-23T23:33:54.825Z,24.60
2018-11-23T23:36:24.044Z,25.87
2018-11-23T23:38:53.060Z,24.50
2018-11-23T23:41:22.107Z,14.73
2018-11-23T23:43:51.155Z,16.60
2018-11-23T23:46:20.557Z,18.47
2018-11-23T23:48:49.765Z,19.93
2018-11-23T23:51:18.735Z,17.07
2018-11-23T23:53:47.731Z,17.70
2018-11-23T23:56:16.835Z,15.40
2018-11-23T23:58:46.184Z,15.77
